sensor_id;sensor_type;location;lat;lon;timestamp;temperature;humidity
27803;DHT22;15182;48.174;11.562;2023-02-15T00:01:47;6.10;96.00
27803;DHT22;15182;48.174;11.562;2023-02-15T00:04:21;6.10;95.90
27803;DHT22;15182;48.174;11.562;2023-02-15T00:07:14;6.10;95.80
27803;DHT22;15182;48.174;11.562;2023-02-15T00:09:47;6.10;95.80
27803;DHT22;15182;48.174;11.562;2023-02-15T00:12:18;6.00;95.70
27803;DHT22;15182;48.174;11.562;2023-02-15T00:14:49;6.00;95.80
27803;DHT22;15182;48.174;11.562;2023-02-15T00:17:20;6.00;95.80
27803;DHT22;15182;48.174;11.562;2023-02-15T00:19:52;5.90;95.80
27803;DHT22;15182;48.174;11.562;2023-02-15T00:22:24;5.90;95.90
27803;DHT22;15182;48.174;11.562;2023-02-15T00:24:55;5.90;96.00
27803;DHT22;15182;48.174;11.562;2023-02-15T00:27:27;5.90;96.00
27803;DHT22;15182;48.174;11.562;2023-02-15T00:29:58;5.90;96.00
27803;DHT22;15182;48.174;11.562;2023-02-15T00:32:29;5.90;96.00
27803;DHT22;15182;48.174;11.562;2023-02-15T00:35:00;5.90;96.00
27803;DHT22;15182;48.174;11.562;2023-02-15T00:37:33;5.90;96.10
27803;DHT22;15182;48.174;11.562;2023-02-15T00:40:06;5.90;96.00
27803;DHT22;15182;48.174;11.562;2023-02-15T00:42:38;5.90;95.90
27803;DHT22;15182;48.174;11.562;2023-02-15T00:45:10;5.90;95.70
27803;DHT22;15182;48.174;11.562;2023-02-15T00:47:41;5.80;95.60
27803;DHT22;15182;48.174;11.562;2023-02-15T00:50:13;5.80;95.70
27803;DHT22;15182;48.174;11.562;2023-02-15T00:52:45;5.70;95.70
27803;DHT22;15182;48.174;11.562;2023-02-15T00:55:17;5.70;95.80
27803;DHT22;15182;48.174;11.562;2023-02-15T00:57:48;5.60;95.90
27803;DHT22;15182;48.174;11.562;2023-02-15T01:00:20;5.60;96.00
27803;DHT22;15182;48.174;11.562;2023-02-15T01:02:51;5.60;96.00
27803;DHT22;15182;48.174;11.562;2023-02-15T01:05:22;5.60;95.90
27803;DHT22;15182;48.174;11.562;2023-02-15T01:07:55;5.60;96.00
27803;DHT22;15182;48.174;11.562;2023-02-15T01:10:27;5.60;96.00
27803;DHT22;15182;48.174;11.562;2023-02-15T01:12:59;5.60;96.00
27803;DHT22;15182;48.174;11.562;2023-02-15T01:15:30;5.60;96.00
27803;DHT22;15182;48.174;11.562;2023-02-15T01:18:03;5.60;96.00
27803;DHT22;15182;48.174;11.562;2023-02-15T01:20:36;5.60;96.40
27803;DHT22;15182;48.174;11.562;2023-02-15T01:23:10;5.60;96.00
27803;DHT22;15182;48.174;11.562;2023-02-15T01:25:41;5.70;96.00
27803;DHT22;15182;48.174;11.562;2023-02-15T01:28:13;5.70;96.00
27803;DHT22;15182;48.174;11.562;2023-02-15T01:30:44;5.70;95.90
27803;DHT22;15182;48.174;11.562;2023-02-15T01:33:18;5.70;95.90
27803;DHT22;15182;48.174;11.562;2023-02-15T01:35:57;5.60;95.80
27803;DHT22;15182;48.174;11.562;2023-02-15T01:38:30;5.60;95.60
27803;DHT22;15182;48.174;11.562;2023-02-15T01:41:02;5.60;95.60
27803;DHT22;15182;48.174;11.562;2023-02-15T01:43:51;5.50;95.50
27803;DHT22;15182;48.174;11.562;2023-02-15T01:46:30;5.50;95.60
27803;DHT22;15182;48.174;11.562;2023-02-15T01:49:10;5.40;95.70
27803;DHT22;15182;48.174;11.562;2023-02-15T01:51:45;5.40;95.70
27803;DHT22;15182;48.174;11.562;2023-02-15T01:54:21;5.40;95.70
27803;DHT22;15182;48.174;11.562;2023-02-15T01:56:57;5.40;95.70
27803;DHT22;15182;48.174;11.562;2023-02-15T01:59:33;5.40;95.80
27803;DHT22;15182;48.174;11.562;2023-02-15T02:02:09;5.30;95.80
27803;DHT22;15182;48.174;11.562;2023-02-15T02:04:49;5.40;95.80
27803;DHT22;15182;48.174;11.562;2023-02-15T02:07:26;5.40;95.80
27803;DHT22;15182;48.174;11.562;2023-02-15T02:10:03;5.40;95.80
27803;DHT22;15182;48.174;11.562;2023-02-15T02:12:36;5.40;95.80
27803;DHT22;15182;48.174;11.562;2023-02-15T02:15:10;5.40;95.90
27803;DHT22;15182;48.174;11.562;2023-02-15T02:17:49;5.40;95.90
27803;DHT22;15182;48.174;11.562;2023-02-15T02:21:03;5.40;95.90
27803;DHT22;15182;48.174;11.562;2023-02-15T02:24:32;5.40;95.90
27803;DHT22;15182;48.174;11.562;2023-02-15T02:27:40;5.40;95.80
27803;DHT22;15182;48.174;11.562;2023-02-15T02:36:23;5.40;95.80
27803;DHT22;15182;48.174;11.562;2023-02-15T02:39:07;5.40;95.80
27803;DHT22;15182;48.174;11.562;2023-02-15T02:41:58;5.40;95.80
27803;DHT22;15182;48.174;11.562;2023-02-15T02:44:39;5.40;95.80
27803;DHT22;15182;48.174;11.562;2023-02-15T02:47:13;5.40;95.80
27803;DHT22;15182;48.174;11.562;2023-02-15T02:49:51;5.40;95.80
27803;DHT22;15182;48.174;11.562;2023-02-15T02:52:36;5.40;95.80
27803;DHT22;15182;48.174;11.562;2023-02-15T02:55:11;5.40;95.80
27803;DHT22;15182;48.174;11.562;2023-02-15T02:57:50;5.40;95.80
27803;DHT22;15182;48.174;11.562;2023-02-15T03:00:28;5.40;95.80
27803;DHT22;15182;48.174;11.562;2023-02-15T03:03:03;5.40;95.70
27803;DHT22;15182;48.174;11.562;2023-02-15T03:05:44;5.40;95.70
27803;DHT22;15182;48.174;11.562;2023-02-15T03:08:18;5.40;95.70
27803;DHT22;15182;48.174;11.562;2023-02-15T03:10:53;5.30;95.70
27803;DHT22;15182;48.174;11.562;2023-02-15T03:13:27;5.30;95.70
27803;DHT22;15182;48.174;11.562;2023-02-15T03:15:58;5.30;95.70
27803;DHT22;15182;48.174;11.562;2023-02-15T03:18:52;5.30;95.80
27803;DHT22;15182;48.174;11.562;2023-02-15T03:21:33;5.40;95.80
27803;DHT22;15182;48.174;11.562;2023-02-15T03:24:09;5.40;95.80
27803;DHT22;15182;48.174;11.562;2023-02-15T03:26:45;5.40;95.80
27803;DHT22;15182;48.174;11.562;2023-02-15T03:29:20;5.40;95.80
27803;DHT22;15182;48.174;11.562;2023-02-15T03:31:58;5.40;95.80
27803;DHT22;15182;48.174;11.562;2023-02-15T03:34:32;5.40;95.80
27803;DHT22;15182;48.174;11.562;2023-02-15T03:37:10;5.40;95.80
27803;DHT22;15182;48.174;11.562;2023-02-15T03:39:47;5.40;95.80
27803;DHT22;15182;48.174;11.562;2023-02-15T03:42:24;5.40;95.80
27803;DHT22;15182;48.174;11.562;2023-02-15T03:45:01;5.40;95.80
27803;DHT22;15182;48.174;11.562;2023-02-15T03:47:36;5.40;95.80
27803;DHT22;15182;48.174;11.562;2023-02-15T03:50:12;5.40;95.90
27803;DHT22;15182;48.174;11.562;2023-02-15T03:53:01;5.40;95.90
27803;DHT22;15182;48.174;11.562;2023-02-15T03:55:36;5.40;95.90
27803;DHT22;15182;48.174;11.562;2023-02-15T03:58:07;5.40;95.80
27803;DHT22;15182;48.174;11.562;2023-02-15T04:01:00;5.40;95.80
27803;DHT22;15182;48.174;11.562;2023-02-15T04:03:54;5.40;95.80
27803;DHT22;15182;48.174;11.562;2023-02-15T04:06:30;5.50;95.90
27803;DHT22;15182;48.174;11.562;2023-02-15T04:09:02;5.50;95.90
27803;DHT22;15182;48.174;11.562;2023-02-15T04:11:51;5.50;95.90
27803;DHT22;15182;48.174;11.562;2023-02-15T04:14:22;5.50;95.80
27803;DHT22;15182;48.174;11.562;2023-02-15T04:17:11;5.50;95.80
27803;DHT22;15182;48.174;11.562;2023-02-15T04:19:43;5.50;95.80
27803;DHT22;15182;48.174;11.562;2023-02-15T04:22:31;5.50;95.80
27803;DHT22;15182;48.174;11.562;2023-02-15T04:25:22;5.50;95.80
27803;DHT22;15182;48.174;11.562;2023-02-15T04:27:54;5.50;95.90
27803;DHT22;15182;48.174;11.562;2023-02-15T04:30:27;5.50;95.90
27803;DHT22;15182;48.174;11.562;2023-02-15T04:32:58;5.50;95.90
27803;DHT22;15182;48.174;11.562;2023-02-15T04:35:29;5.50;95.80
27803;DHT22;15182;48.174;11.562;2023-02-15T04:38:01;5.50;95.80
27803;DHT22;15182;48.174;11.562;2023-02-15T04:40:34;5.50;95.80
27803;DHT22;15182;48.174;11.562;2023-02-15T04:43:05;5.50;95.80
27803;DHT22;15182;48.174;11.562;2023-02-15T04:45:36;5.50;95.80
27803;DHT22;15182;48.174;11.562;2023-02-15T04:48:08;5.50;95.80
27803;DHT22;15182;48.174;11.562;2023-02-15T04:50:39;5.50;95.80
27803;DHT22;15182;48.174;11.562;2023-02-15T04:53:10;5.40;95.70
27803;DHT22;15182;48.174;11.562;2023-02-15T04:55:45;5.40;95.80
27803;DHT22;15182;48.174;11.562;2023-02-15T04:58:17;5.40;95.80
27803;DHT22;15182;48.174;11.562;2023-02-15T05:00:48;5.40;95.80
27803;DHT22;15182;48.174;11.562;2023-02-15T05:03:19;5.40;95.80
27803;DHT22;15182;48.174;11.562;2023-02-15T05:05:51;5.40;95.80
27803;DHT22;15182;48.174;11.562;2023-02-15T05:08:22;5.40;95.90
27803;DHT22;15182;48.174;11.562;2023-02-15T05:10:55;5.40;95.90
27803;DHT22;15182;48.174;11.562;2023-02-15T05:13:27;5.40;95.90
27803;DHT22;15182;48.174;11.562;2023-02-15T05:15:58;5.40;95.90
27803;DHT22;15182;48.174;11.562;2023-02-15T05:18:29;5.40;95.90
27803;DHT22;15182;48.174;11.562;2023-02-15T05:21:00;5.40;96.00
27803;DHT22;15182;48.174;11.562;2023-02-15T05:23:32;5.40;96.00
27803;DHT22;15182;48.174;11.562;2023-02-15T05:26:04;5.40;96.10
27803;DHT22;15182;48.174;11.562;2023-02-15T05:28:54;5.40;96.10
27803;DHT22;15182;48.174;11.562;2023-02-15T05:31:25;5.40;96.10
27803;DHT22;15182;48.174;11.562;2023-02-15T05:33:56;5.40;96.00
27803;DHT22;15182;48.174;11.562;2023-02-15T05:36:27;5.40;96.00
27803;DHT22;15182;48.174;11.562;2023-02-15T05:38:59;5.40;96.00
27803;DHT22;15182;48.174;11.562;2023-02-15T05:41:33;5.40;96.00
27803;DHT22;15182;48.174;11.562;2023-02-15T05:44:05;5.40;96.10
27803;DHT22;15182;48.174;11.562;2023-02-15T05:46:37;5.40;96.10
27803;DHT22;15182;48.174;11.562;2023-02-15T05:49:08;5.40;96.10
27803;DHT22;15182;48.174;11.562;2023-02-15T05:51:39;5.40;96.10
27803;DHT22;15182;48.174;11.562;2023-02-15T05:54:10;5.40;96.10
27803;DHT22;15182;48.174;11.562;2023-02-15T05:56:43;5.40;96.20
27803;DHT22;15182;48.174;11.562;2023-02-15T05:59:14;5.40;96.20
27803;DHT22;15182;48.174;11.562;2023-02-15T06:01:47;5.40;96.20
27803;DHT22;15182;48.174;11.562;2023-02-15T06:04:18;5.40;96.30
27803;DHT22;15182;48.174;11.562;2023-02-15T06:06:50;5.40;96.30
27803;DHT22;15182;48.174;11.562;2023-02-15T06:09:21;5.40;96.30
27803;DHT22;15182;48.174;11.562;2023-02-15T06:11:53;5.50;96.30
27803;DHT22;15182;48.174;11.562;2023-02-15T06:14:25;5.50;96.40
27803;DHT22;15182;48.174;11.562;2023-02-15T06:16:56;5.50;96.40
27803;DHT22;15182;48.174;11.562;2023-02-15T06:19:27;5.50;96.40
27803;DHT22;15182;48.174;11.562;2023-02-15T06:21:58;5.50;96.30
27803;DHT22;15182;48.174;11.562;2023-02-15T06:24:29;5.50;96.30
27803;DHT22;15182;48.174;11.562;2023-02-15T06:27:02;5.50;96.30
27803;DHT22;15182;48.174;11.562;2023-02-15T06:29:33;5.50;96.40
27803;DHT22;15182;48.174;11.562;2023-02-15T06:32:05;5.40;96.30
27803;DHT22;15182;48.174;11.562;2023-02-15T06:34:36;5.40;96.40
27803;DHT22;15182;48.174;11.562;2023-02-15T06:37:07;5.40;96.40
27803;DHT22;15182;48.174;11.562;2023-02-15T06:39:39;5.40;96.40
27803;DHT22;15182;48.174;11.562;2023-02-15T06:42:12;5.40;96.50
27803;DHT22;15182;48.174;11.562;2023-02-15T06:44:46;5.40;96.60
27803;DHT22;15182;48.174;11.562;2023-02-15T06:47:18;5.40;96.60
27803;DHT22;15182;48.174;11.562;2023-02-15T06:49:49;5.40;96.60
27803;DHT22;15182;48.174;11.562;2023-02-15T06:52:20;5.40;96.60
27803;DHT22;15182;48.174;11.562;2023-02-15T06:54:52;5.40;96.60
27803;DHT22;15182;48.174;11.562;2023-02-15T06:57:25;5.40;96.60
27803;DHT22;15182;48.174;11.562;2023-02-15T06:59:56;5.50;96.60
27803;DHT22;15182;48.174;11.562;2023-02-15T07:02:27;5.50;96.60
27803;DHT22;15182;48.174;11.562;2023-02-15T07:04:59;5.50;96.60
27803;DHT22;15182;48.174;11.562;2023-02-15T07:07:32;5.50;96.70
27803;DHT22;15182;48.174;11.562;2023-02-15T07:10:03;5.50;96.70
27803;DHT22;15182;48.174;11.562;2023-02-15T07:12:36;5.50;96.70
27803;DHT22;15182;48.174;11.562;2023-02-15T07:15:11;5.50;96.80
27803;DHT22;15182;48.174;11.562;2023-02-15T07:17:44;5.50;96.70
27803;DHT22;15182;48.174;11.562;2023-02-15T07:20:17;5.60;96.80
27803;DHT22;15182;48.174;11.562;2023-02-15T07:22:50;5.60;96.80
27803;DHT22;15182;48.174;11.562;2023-02-15T07:25:22;5.60;96.80
27803;DHT22;15182;48.174;11.562;2023-02-15T07:27:58;5.60;96.80
27803;DHT22;15182;48.174;11.562;2023-02-15T07:30:31;5.60;96.90
27803;DHT22;15182;48.174;11.562;2023-02-15T07:33:05;5.60;96.80
27803;DHT22;15182;48.174;11.562;2023-02-15T07:35:53;5.70;96.80
27803;DHT22;15182;48.174;11.562;2023-02-15T07:38:27;5.70;96.80
27803;DHT22;15182;48.174;11.562;2023-02-15T07:41:00;5.60;96.70
27803;DHT22;15182;48.174;11.562;2023-02-15T07:43:35;5.70;96.80
27803;DHT22;15182;48.174;11.562;2023-02-15T07:46:10;5.70;96.80
27803;DHT22;15182;48.174;11.562;2023-02-15T07:48:43;5.70;96.80
27803;DHT22;15182;48.174;11.562;2023-02-15T07:51:15;5.70;97.20
27803;DHT22;15182;48.174;11.562;2023-02-15T07:53:47;5.70;96.80
27803;DHT22;15182;48.174;11.562;2023-02-15T07:56:20;5.70;96.80
27803;DHT22;15182;48.174;11.562;2023-02-15T07:58:53;5.80;96.90
27803;DHT22;15182;48.174;11.562;2023-02-15T08:01:27;5.80;96.90
27803;DHT22;15182;48.174;11.562;2023-02-15T08:04:00;5.80;96.90
27803;DHT22;15182;48.174;11.562;2023-02-15T08:06:34;5.80;96.90
27803;DHT22;15182;48.174;11.562;2023-02-15T08:09:08;5.80;97.00
27803;DHT22;15182;48.174;11.562;2023-02-15T08:11:40;5.90;97.10
27803;DHT22;15182;48.174;11.562;2023-02-15T08:14:15;5.90;97.00
27803;DHT22;15182;48.174;11.562;2023-02-15T08:16:48;5.90;97.00
27803;DHT22;15182;48.174;11.562;2023-02-15T08:19:22;5.90;96.90
27803;DHT22;15182;48.174;11.562;2023-02-15T08:21:56;5.90;97.00
27803;DHT22;15182;48.174;11.562;2023-02-15T08:24:29;6.00;97.00
27803;DHT22;15182;48.174;11.562;2023-02-15T08:27:02;6.00;97.00
27803;DHT22;15182;48.174;11.562;2023-02-15T08:29:36;6.00;97.10
27803;DHT22;15182;48.174;11.562;2023-02-15T08:32:11;6.00;97.00
27803;DHT22;15182;48.174;11.562;2023-02-15T08:34:43;6.00;96.90
27803;DHT22;15182;48.174;11.562;2023-02-15T08:37:17;6.00;96.90
27803;DHT22;15182;48.174;11.562;2023-02-15T08:39:48;6.10;96.90
27803;DHT22;15182;48.174;11.562;2023-02-15T08:42:21;6.00;96.80
27803;DHT22;15182;48.174;11.562;2023-02-15T08:44:55;6.10;96.90
27803;DHT22;15182;48.174;11.562;2023-02-15T08:47:28;6.10;96.90
27803;DHT22;15182;48.174;11.562;2023-02-15T08:49:59;6.10;96.90
27803;DHT22;15182;48.174;11.562;2023-02-15T08:52:32;6.10;96.90
27803;DHT22;15182;48.174;11.562;2023-02-15T08:55:03;6.10;96.90
27803;DHT22;15182;48.174;11.562;2023-02-15T08:57:35;6.20;96.90
27803;DHT22;15182;48.174;11.562;2023-02-15T09:00:15;6.20;96.90
27803;DHT22;15182;48.174;11.562;2023-02-15T09:02:50;6.20;96.90
27803;DHT22;15182;48.174;11.562;2023-02-15T09:05:21;6.20;96.90
27803;DHT22;15182;48.174;11.562;2023-02-15T09:07:52;6.30;96.90
27803;DHT22;15182;48.174;11.562;2023-02-15T09:10:24;6.30;97.00
27803;DHT22;15182;48.174;11.562;2023-02-15T09:12:55;6.30;97.00
27803;DHT22;15182;48.174;11.562;2023-02-15T09:15:27;6.30;97.00
27803;DHT22;15182;48.174;11.562;2023-02-15T09:17:59;6.40;97.10
27803;DHT22;15182;48.174;11.562;2023-02-15T09:20:37;6.40;97.00
27803;DHT22;15182;48.174;11.562;2023-02-15T09:23:08;6.50;97.10
27803;DHT22;15182;48.174;11.562;2023-02-15T09:25:39;6.60;97.10
27803;DHT22;15182;48.174;11.562;2023-02-15T09:28:11;6.60;97.10
27803;DHT22;15182;48.174;11.562;2023-02-15T09:30:43;6.70;97.00
27803;DHT22;15182;48.174;11.562;2023-02-15T09:33:14;6.70;97.00
27803;DHT22;15182;48.174;11.562;2023-02-15T09:35:46;6.80;97.00
27803;DHT22;15182;48.174;11.562;2023-02-15T09:38:17;6.80;97.00
27803;DHT22;15182;48.174;11.562;2023-02-15T09:40:52;6.90;97.40
27803;DHT22;15182;48.174;11.562;2023-02-15T09:43:35;7.00;97.60
27803;DHT22;15182;48.174;11.562;2023-02-15T09:46:18;7.10;97.60
27803;DHT22;15182;48.174;11.562;2023-02-15T09:49:09;7.30;97.60
27803;DHT22;15182;48.174;11.562;2023-02-15T09:52:07;7.60;97.50
27803;DHT22;15182;48.174;11.562;2023-02-15T09:57:46;8.00;97.10
27803;DHT22;15182;48.174;11.562;2023-02-15T10:00:34;8.10;96.60
27803;DHT22;15182;48.174;11.562;2023-02-15T10:03:36;8.20;96.30
27803;DHT22;15182;48.174;11.562;2023-02-15T10:06:30;8.20;96.20
27803;DHT22;15182;48.174;11.562;2023-02-15T10:09:22;8.30;96.30
27803;DHT22;15182;48.174;11.562;2023-02-15T10:12:13;8.40;96.20
27803;DHT22;15182;48.174;11.562;2023-02-15T10:15:17;8.60;96.30
27803;DHT22;15182;48.174;11.562;2023-02-15T10:18:03;8.70;96.30
27803;DHT22;15182;48.174;11.562;2023-02-15T10:20:45;8.90;96.20
27803;DHT22;15182;48.174;11.562;2023-02-15T10:23:30;9.00;96.10
27803;DHT22;15182;48.174;11.562;2023-02-15T10:26:15;9.20;96.30
27803;DHT22;15182;48.174;11.562;2023-02-15T10:28:52;9.40;96.20
27803;DHT22;15182;48.174;11.562;2023-02-15T10:31:31;9.60;96.00
27803;DHT22;15182;48.174;11.562;2023-02-15T10:34:14;9.70;95.70
27803;DHT22;15182;48.174;11.562;2023-02-15T10:37:06;9.90;95.60
27803;DHT22;15182;48.174;11.562;2023-02-15T10:39:51;10.10;95.40
27803;DHT22;15182;48.174;11.562;2023-02-15T10:42:32;10.30;95.30
27803;DHT22;15182;48.174;11.562;2023-02-15T10:45:19;10.40;95.30
27803;DHT22;15182;48.174;11.562;2023-02-15T10:48:04;10.70;95.10
27803;DHT22;15182;48.174;11.562;2023-02-15T10:50:46;10.90;95.00
27803;DHT22;15182;48.174;11.562;2023-02-15T10:53:31;11.10;94.90
27803;DHT22;15182;48.174;11.562;2023-02-15T10:56:12;11.30;94.60
27803;DHT22;15182;48.174;11.562;2023-02-15T10:59:04;11.40;94.60
27803;DHT22;15182;48.174;11.562;2023-02-15T11:01:49;11.70;94.60
27803;DHT22;15182;48.174;11.562;2023-02-15T11:04:43;11.90;94.00
27803;DHT22;15182;48.174;11.562;2023-02-15T11:07:20;12.10;93.70
27803;DHT22;15182;48.174;11.562;2023-02-15T11:09:56;12.20;93.90
27803;DHT22;15182;48.174;11.562;2023-02-15T11:12:35;12.40;93.60
27803;DHT22;15182;48.174;11.562;2023-02-15T11:15:15;12.60;93.70
27803;DHT22;15182;48.174;11.562;2023-02-15T11:17:53;12.90;93.20
27803;DHT22;15182;48.174;11.562;2023-02-15T11:20:31;13.10;93.20
27803;DHT22;15182;48.174;11.562;2023-02-15T11:23:13;13.30;92.80
27803;DHT22;15182;48.174;11.562;2023-02-15T11:25:52;13.50;92.50
27803;DHT22;15182;48.174;11.562;2023-02-15T11:28:30;13.60;92.50
27803;DHT22;15182;48.174;11.562;2023-02-15T11:31:16;13.80;92.30
27803;DHT22;15182;48.174;11.562;2023-02-15T11:33:50;13.90;92.20
27803;DHT22;15182;48.174;11.562;2023-02-15T11:36:28;14.10;91.90
27803;DHT22;15182;48.174;11.562;2023-02-15T11:39:04;14.30;91.60
27803;DHT22;15182;48.174;11.562;2023-02-15T11:41:47;14.40;91.60
27803;DHT22;15182;48.174;11.562;2023-02-15T11:44:23;14.50;91.20
27803;DHT22;15182;48.174;11.562;2023-02-15T11:46:56;14.60;91.20
27803;DHT22;15182;48.174;11.562;2023-02-15T11:49:32;14.70;91.20
27803;DHT22;15182;48.174;11.562;2023-02-15T11:52:10;14.70;90.70
27803;DHT22;15182;48.174;11.562;2023-02-15T11:54:47;14.70;90.50
27803;DHT22;15182;48.174;11.562;2023-02-15T11:57:25;14.70;90.40
27803;DHT22;15182;48.174;11.562;2023-02-15T12:00:04;14.80;90.30
27803;DHT22;15182;48.174;11.562;2023-02-15T12:02:43;14.80;90.40
27803;DHT22;15182;48.174;11.562;2023-02-15T12:05:19;14.90;90.20
27803;DHT22;15182;48.174;11.562;2023-02-15T12:07:54;15.00;90.10
27803;DHT22;15182;48.174;11.562;2023-02-15T12:10:36;15.10;90.00
27803;DHT22;15182;48.174;11.562;2023-02-15T12:13:15;15.10;89.40
27803;DHT22;15182;48.174;11.562;2023-02-15T12:15:51;15.20;89.40
27803;DHT22;15182;48.174;11.562;2023-02-15T12:18:33;15.20;88.90
27803;DHT22;15182;48.174;11.562;2023-02-15T12:21:09;15.20;88.20
27803;DHT22;15182;48.174;11.562;2023-02-15T12:23:49;15.20;88.50
27803;DHT22;15182;48.174;11.562;2023-02-15T12:26:24;15.30;88.00
27803;DHT22;15182;48.174;11.562;2023-02-15T12:29:00;15.30;88.20
27803;DHT22;15182;48.174;11.562;2023-02-15T12:31:39;15.40;88.20
27803;DHT22;15182;48.174;11.562;2023-02-15T12:34:23;15.40;87.60
27803;DHT22;15182;48.174;11.562;2023-02-15T12:37:00;15.40;87.20
27803;DHT22;15182;48.174;11.562;2023-02-15T12:39:38;15.40;87.00
27803;DHT22;15182;48.174;11.562;2023-02-15T12:42:22;15.30;87.00
27803;DHT22;15182;48.174;11.562;2023-02-15T12:44:57;15.20;87.00
27803;DHT22;15182;48.174;11.562;2023-02-15T12:47:28;15.10;86.40
27803;DHT22;15182;48.174;11.562;2023-02-15T12:50:21;15.00;86.90
27803;DHT22;15182;48.174;11.562;2023-02-15T12:53:08;14.80;85.80
27803;DHT22;15182;48.174;11.562;2023-02-15T12:55:54;14.60;86.10
27803;DHT22;15182;48.174;11.562;2023-02-15T12:58:28;14.40;86.30
27803;DHT22;15182;48.174;11.562;2023-02-15T13:01:11;14.20;86.90
27803;DHT22;15182;48.174;11.562;2023-02-15T13:04:01;14.00;86.60
27803;DHT22;15182;48.174;11.562;2023-02-15T13:06:35;13.80;87.00
27803;DHT22;15182;48.174;11.562;2023-02-15T13:09:13;13.60;87.70
27803;DHT22;15182;48.174;11.562;2023-02-15T13:11:48;13.40;87.90
27803;DHT22;15182;48.174;11.562;2023-02-15T13:14:21;13.20;88.30
27803;DHT22;15182;48.174;11.562;2023-02-15T13:17:00;13.10;88.60
27803;DHT22;15182;48.174;11.562;2023-02-15T13:19:35;13.00;89.70
27803;DHT22;15182;48.174;11.562;2023-02-15T13:22:13;12.80;89.20
27803;DHT22;15182;48.174;11.562;2023-02-15T13:24:48;12.70;89.60
27803;DHT22;15182;48.174;11.562;2023-02-15T13:27:24;12.70;89.90
27803;DHT22;15182;48.174;11.562;2023-02-15T13:30:03;12.60;90.00
27803;DHT22;15182;48.174;11.562;2023-02-15T13:32:41;12.60;90.00
27803;DHT22;15182;48.174;11.562;2023-02-15T13:35:16;12.50;90.10
27803;DHT22;15182;48.174;11.562;2023-02-15T13:38:11;12.50;90.20
27803;DHT22;15182;48.174;11.562;2023-02-15T13:40:51;12.40;90.20
27803;DHT22;15182;48.174;11.562;2023-02-15T13:43:33;12.30;90.30
27803;DHT22;15182;48.174;11.562;2023-02-15T13:46:18;12.20;90.40
27803;DHT22;15182;48.174;11.562;2023-02-15T13:49:04;12.10;90.50
27803;DHT22;15182;48.174;11.562;2023-02-15T13:51:45;12.00;90.50
27803;DHT22;15182;48.174;11.562;2023-02-15T13:54:35;12.00;90.70
27803;DHT22;15182;48.174;11.562;2023-02-15T13:57:36;11.90;90.70
27803;DHT22;15182;48.174;11.562;2023-02-15T14:00:18;11.80;90.70
27803;DHT22;15182;48.174;11.562;2023-02-15T14:03:36;11.70;90.90
27803;DHT22;15182;48.174;11.562;2023-02-15T14:06:48;11.70;90.90
27803;DHT22;15182;48.174;11.562;2023-02-15T14:09:35;11.60;91.10
27803;DHT22;15182;48.174;11.562;2023-02-15T14:12:24;11.60;91.20
27803;DHT22;15182;48.174;11.562;2023-02-15T14:15:13;11.50;91.20
27803;DHT22;15182;48.174;11.562;2023-02-15T14:18:07;11.50;91.30
27803;DHT22;15182;48.174;11.562;2023-02-15T14:20:52;11.40;91.40
27803;DHT22;15182;48.174;11.562;2023-02-15T14:23:39;11.40;91.50
27803;DHT22;15182;48.174;11.562;2023-02-15T14:26:18;11.40;91.50
27803;DHT22;15182;48.174;11.562;2023-02-15T14:29:02;11.30;91.60
27803;DHT22;15182;48.174;11.562;2023-02-15T14:31:44;11.30;91.60
27803;DHT22;15182;48.174;11.562;2023-02-15T14:34:23;11.30;91.60
27803;DHT22;15182;48.174;11.562;2023-02-15T14:36:57;11.20;91.70
27803;DHT22;15182;48.174;11.562;2023-02-15T14:39:35;11.20;91.80
27803;DHT22;15182;48.174;11.562;2023-02-15T14:42:36;11.20;91.80
27803;DHT22;15182;48.174;11.562;2023-02-15T14:45:20;11.20;91.90
27803;DHT22;15182;48.174;11.562;2023-02-15T14:48:00;11.20;91.90
27803;DHT22;15182;48.174;11.562;2023-02-15T14:50:43;11.20;92.00
27803;DHT22;15182;48.174;11.562;2023-02-15T14:53:25;11.10;92.00
27803;DHT22;15182;48.174;11.562;2023-02-15T14:56:23;11.10;92.00
27803;DHT22;15182;48.174;11.562;2023-02-15T14:59:12;11.10;92.00
27803;DHT22;15182;48.174;11.562;2023-02-15T15:01:52;11.10;92.00
27803;DHT22;15182;48.174;11.562;2023-02-15T15:04:29;11.10;92.00
27803;DHT22;15182;48.174;11.562;2023-02-15T15:07:07;11.00;92.00
27803;DHT22;15182;48.174;11.562;2023-02-15T15:09:45;11.00;92.00
27803;DHT22;15182;48.174;11.562;2023-02-15T15:12:39;11.00;92.10
27803;DHT22;15182;48.174;11.562;2023-02-15T15:15:32;11.00;92.10
27803;DHT22;15182;48.174;11.562;2023-02-15T15:18:42;10.90;92.10
27803;DHT22;15182;48.174;11.562;2023-02-15T15:21:55;10.90;92.10
27803;DHT22;15182;48.174;11.562;2023-02-15T15:24:49;10.90;92.10
27803;DHT22;15182;48.174;11.562;2023-02-15T15:27:44;10.90;92.10
27803;DHT22;15182;48.174;11.562;2023-02-15T15:40:52;10.70;92.30
27803;DHT22;15182;48.174;11.562;2023-02-15T15:47:40;10.70;92.40
27803;DHT22;15182;48.174;11.562;2023-02-15T15:50:20;10.60;92.40
27803;DHT22;15182;48.174;11.562;2023-02-15T15:52:54;10.60;92.40
27803;DHT22;15182;48.174;11.562;2023-02-15T15:55:31;10.50;92.30
27803;DHT22;15182;48.174;11.562;2023-02-15T15:58:05;10.50;92.80
27803;DHT22;15182;48.174;11.562;2023-02-15T16:00:41;10.50;92.40
27803;DHT22;15182;48.174;11.562;2023-02-15T16:03:22;10.50;92.40
27803;DHT22;15182;48.174;11.562;2023-02-15T16:05:56;10.40;92.40
27803;DHT22;15182;48.174;11.562;2023-02-15T16:08:28;10.40;92.40
27803;DHT22;15182;48.174;11.562;2023-02-15T16:11:15;10.30;92.40
27803;DHT22;15182;48.174;11.562;2023-02-15T16:13:49;10.30;92.40
27803;DHT22;15182;48.174;11.562;2023-02-15T16:16:24;10.20;92.30
27803;DHT22;15182;48.174;11.562;2023-02-15T16:18:58;10.20;92.30
27803;DHT22;15182;48.174;11.562;2023-02-15T16:21:32;10.10;92.30
27803;DHT22;15182;48.174;11.562;2023-02-15T16:24:19;10.00;92.30
27803;DHT22;15182;48.174;11.562;2023-02-15T16:27:27;10.00;92.30
27803;DHT22;15182;48.174;11.562;2023-02-15T16:30:22;9.90;92.40
27803;DHT22;15182;48.174;11.562;2023-02-15T16:33:03;9.80;92.40
27803;DHT22;15182;48.174;11.562;2023-02-15T16:35:37;9.80;92.40
27803;DHT22;15182;48.174;11.562;2023-02-15T16:38:11;9.70;92.40
27803;DHT22;15182;48.174;11.562;2023-02-15T16:40:48;9.70;92.40
27803;DHT22;15182;48.174;11.562;2023-02-15T16:43:27;9.60;92.40
27803;DHT22;15182;48.174;11.562;2023-02-15T16:46:05;9.50;92.40
27803;DHT22;15182;48.174;11.562;2023-02-15T16:48:43;9.50;92.40
27803;DHT22;15182;48.174;11.562;2023-02-15T16:51:22;9.40;92.50
27803;DHT22;15182;48.174;11.562;2023-02-15T16:53:56;9.30;92.50
27803;DHT22;15182;48.174;11.562;2023-02-15T16:56:32;9.30;92.50